sensor_id;sensor_type;location;lat;lon;timestamp;temperature;humidity
17591;DHT22;8914;50.070;8.226;2023-12-04T00:00:36;1.40;99.90
17591;DHT22;8914;50.070;8.226;2023-12-04T00:03:06;1.40;99.90
17591;DHT22;8914;50.070;8.226;2023-12-04T00:05:35;1.40;99.90
17591;DHT22;8914;50.070;8.226;2023-12-04T00:08:05;1.40;99.90
17591;DHT22;8914;50.070;8.226;2023-12-04T00:10:35;1.20;99.90
17591;DHT22;8914;50.070;8.226;2023-12-04T00:13:07;1.30;99.90
17591;DHT22;8914;50.070;8.226;2023-12-04T00:15:36;1.30;99.90
17591;DHT22;8914;50.070;8.226;2023-12-04T00:18:06;1.30;99.90
17591;DHT22;8914;50.070;8.226;2023-12-04T00:20:36;1.20;99.90
17591;DHT22;8914;50.070;8.226;2023-12-04T00:23:05;1.20;99.90
17591;DHT22;8914;50.070;8.226;2023-12-04T00:25:35;1.10;99.90
17591;DHT22;8914;50.070;8.226;2023-12-04T00:28:07;1.10;99.90
17591;DHT22;8914;50.070;8.226;2023-12-04T00:30:37;1.10;99.90
17591;DHT22;8914;50.070;8.226;2023-12-04T00:33:06;1.00;99.90
17591;DHT22;8914;50.070;8.226;2023-12-04T00:35:36;1.10;99.90
17591;DHT22;8914;50.070;8.226;2023-12-04T00:38:06;1.10;99.90
17591;DHT22;8914;50.070;8.226;2023-12-04T00:40:36;1.10;99.90
17591;DHT22;8914;50.070;8.226;2023-12-04T00:43:08;1.10;99.90
17591;DHT22;8914;50.070;8.226;2023-12-04T00:45:37;1.00;99.90
17591;DHT22;8914;50.070;8.226;2023-12-04T00:48:07;1.00;99.90
17591;DHT22;8914;50.070;8.226;2023-12-04T00:50:37;1.00;99.90
17591;DHT22;8914;50.070;8.226;2023-12-04T00:53:06;1.00;99.90
17591;DHT22;8914;50.070;8.226;2023-12-04T00:55:36;1.00;99.90
17591;DHT22;8914;50.070;8.226;2023-12-04T00:58:08;0.90;99.90
17591;DHT22;8914;50.070;8.226;2023-12-04T01:00:38;0.90;99.90
17591;DHT22;8914;50.070;8.226;2023-12-04T01:03:08;0.90;99.90
17591;DHT22;8914;50.070;8.226;2023-12-04T01:05:37;0.90;99.90
17591;DHT22;8914;50.070;8.226;2023-12-04T01:08:07;0.90;99.90
17591;DHT22;8914;50.070;8.226;2023-12-04T01:10:37;0.80;99.90
17591;DHT22;8914;50.070;8.226;2023-12-04T01:13:10;0.80;99.90
17591;DHT22;8914;50.070;8.226;2023-12-04T01:15:40;0.80;99.90
17591;DHT22;8914;50.070;8.226;2023-12-04T01:18:09;0.80;99.90
17591;DHT22;8914;50.070;8.226;2023-12-04T01:20:40;0.80;99.90
17591;DHT22;8914;50.070;8.226;2023-12-04T01:23:10;0.80;99.90
17591;DHT22;8914;50.070;8.226;2023-12-04T01:25:39;0.70;99.90
17591;DHT22;8914;50.070;8.226;2023-12-04T01:28:11;0.70;99.90
17591;DHT22;8914;50.070;8.226;2023-12-04T01:30:41;0.70;99.90
17591;DHT22;8914;50.070;8.226;2023-12-04T01:33:11;0.70;99.90
17591;DHT22;8914;50.070;8.226;2023-12-04T01:35:41;0.70;99.90
17591;DHT22;8914;50.070;8.226;2023-12-04T01:38:10;0.70;99.90
17591;DHT22;8914;50.070;8.226;2023-12-04T01:40:40;0.70;99.90
17591;DHT22;8914;50.070;8.226;2023-12-04T01:43:12;0.70;99.90
17591;DHT22;8914;50.070;8.226;2023-12-04T01:45:42;0.70;99.90
17591;DHT22;8914;50.070;8.226;2023-12-04T01:48:12;0.70;99.90
17591;DHT22;8914;50.070;8.226;2023-12-04T01:50:43;0.70;99.90
17591;DHT22;8914;50.070;8.226;2023-12-04T01:53:13;0.70;99.90
17591;DHT22;8914;50.070;8.226;2023-12-04T01:55:43;0.70;99.90
17591;DHT22;8914;50.070;8.226;2023-12-04T01:58:15;0.70;99.90
17591;DHT22;8914;50.070;8.226;2023-12-04T02:00:45;0.60;99.90
17591;DHT22;8914;50.070;8.226;2023-12-04T02:03:15;0.60;99.90
17591;DHT22;8914;50.070;8.226;2023-12-04T02:05:44;0.60;99.90
17591;DHT22;8914;50.070;8.226;2023-12-04T02:08:14;0.60;99.90
17591;DHT22;8914;50.070;8.226;2023-12-04T02:10:44;0.60;99.90
17591;DHT22;8914;50.070;8.226;2023-12-04T02:13:16;0.60;99.90
17591;DHT22;8914;50.070;8.226;2023-12-04T02:15:46;0.50;99.90
17591;DHT22;8914;50.070;8.226;2023-12-04T02:18:18;0.50;99.90
17591;DHT22;8914;50.070;8.226;2023-12-04T02:20:48;0.50;99.90
17591;DHT22;8914;50.070;8.226;2023-12-04T02:23:18;0.50;99.90
17591;DHT22;8914;50.070;8.226;2023-12-04T02:25:50;0.50;99.90
17591;DHT22;8914;50.070;8.226;2023-12-04T02:28:21;0.50;99.90
17591;DHT22;8914;50.070;8.226;2023-12-04T04:45:34;0.50;99.90
17591;DHT22;8914;50.070;8.226;2023-12-04T04:48:04;0.40;99.90
17591;DHT22;8914;50.070;8.226;2023-12-04T04:50:34;0.10;99.90
17591;DHT22;8914;50.070;8.226;2023-12-04T04:53:04;0.20;99.90
17591;DHT22;8914;50.070;8.226;2023-12-04T04:55:33;0.20;99.90
17591;DHT22;8914;50.070;8.226;2023-12-04T04:58:14;0.10;99.90
17591;DHT22;8914;50.070;8.226;2023-12-04T05:00:47;0.10;99.90
17591;DHT22;8914;50.070;8.226;2023-12-04T05:03:17;-0.10;99.90
17591;DHT22;8914;50.070;8.226;2023-12-04T05:08:31;-0.30;99.90
17591;DHT22;8914;50.070;8.226;2023-12-04T05:11:00;-0.20;99.90
17591;DHT22;8914;50.070;8.226;2023-12-04T05:13:30;-0.20;99.90
17591;DHT22;8914;50.070;8.226;2023-12-04T05:16:03;-0.20;99.90
17591;DHT22;8914;50.070;8.226;2023-12-04T05:18:33;-0.10;99.90
17591;DHT22;8914;50.070;8.226;2023-12-04T05:21:03;-0.10;99.90
17591;DHT22;8914;50.070;8.226;2023-12-04T05:23:33;0.00;99.90
17591;DHT22;8914;50.070;8.226;2023-12-04T05:26:03;-0.10;99.90
17591;DHT22;8914;50.070;8.226;2023-12-04T05:28:33;-0.10;99.90
17591;DHT22;8914;50.070;8.226;2023-12-04T05:31:06;-0.10;99.90
17591;DHT22;8914;50.070;8.226;2023-12-04T05:33:36;-0.10;99.90
17591;DHT22;8914;50.070;8.226;2023-12-04T05:36:11;-0.20;99.90
17591;DHT22;8914;50.070;8.226;2023-12-04T05:38:40;-0.10;99.90
17591;DHT22;8914;50.070;8.226;2023-12-04T05:41:10;-0.10;99.90
17591;DHT22;8914;50.070;8.226;2023-12-04T05:43:40;-0.10;99.90
17591;DHT22;8914;50.070;8.226;2023-12-04T05:46:12;-0.10;99.90
17591;DHT22;8914;50.070;8.226;2023-12-04T05:48:41;-0.10;99.90
17591;DHT22;8914;50.070;8.226;2023-12-04T05:51:12;-0.20;99.90
17591;DHT22;8914;50.070;8.226;2023-12-04T05:53:42;-0.20;99.90
17591;DHT22;8914;50.070;8.226;2023-12-04T05:56:11;-0.20;99.90
17591;DHT22;8914;50.070;8.226;2023-12-04T05:58:41;-0.20;99.90
17591;DHT22;8914;50.070;8.226;2023-12-04T06:01:13;-0.20;99.90
17591;DHT22;8914;50.070;8.226;2023-12-04T06:03:43;0.00;99.90
17591;DHT22;8914;50.070;8.226;2023-12-04T06:06:13;-0.20;99.90
17591;DHT22;8914;50.070;8.226;2023-12-04T06:08:42;-0.30;99.90
17591;DHT22;8914;50.070;8.226;2023-12-04T06:11:12;-0.20;99.90
17591;DHT22;8914;50.070;8.226;2023-12-04T06:13:42;-0.20;99.90
17591;DHT22;8914;50.070;8.226;2023-12-04T06:16:14;-0.10;99.90
17591;DHT22;8914;50.070;8.226;2023-12-04T06:18:44;-0.20;99.90
17591;DHT22;8914;50.070;8.226;2023-12-04T06:21:14;-0.20;99.90
17591;DHT22;8914;50.070;8.226;2023-12-04T06:23:44;-0.20;99.90
17591;DHT22;8914;50.070;8.226;2023-12-04T06:26:14;-0.20;99.90
17591;DHT22;8914;50.070;8.226;2023-12-04T06:28:45;-0.20;99.90
17591;DHT22;8914;50.070;8.226;2023-12-04T06:31:18;-0.30;99.90
17591;DHT22;8914;50.070;8.226;2023-12-04T06:33:48;-0.30;99.90
17591;DHT22;8914;50.070;8.226;2023-12-04T06:36:18;-0.30;99.90
17591;DHT22;8914;50.070;8.226;2023-12-04T06:38:48;-0.20;99.90
17591;DHT22;8914;50.070;8.226;2023-12-04T06:41:19;-0.20;99.90
17591;DHT22;8914;50.070;8.226;2023-12-04T06:43:50;-0.10;99.90
17591;DHT22;8914;50.070;8.226;2023-12-04T06:46:22;-0.20;99.90
17591;DHT22;8914;50.070;8.226;2023-12-04T06:48:53;-0.10;99.90
17591;DHT22;8914;50.070;8.226;2023-12-04T06:51:24;-0.20;99.90
17591;DHT22;8914;50.070;8.226;2023-12-04T06:53:54;-0.20;99.90
17591;DHT22;8914;50.070;8.226;2023-12-04T06:56:23;-0.20;99.90
17591;DHT22;8914;50.070;8.226;2023-12-04T06:58:53;-0.20;99.90
17591;DHT22;8914;50.070;8.226;2023-12-04T07:01:25;-0.20;99.90
17591;DHT22;8914;50.070;8.226;2023-12-04T07:03:55;-0.30;99.90
17591;DHT22;8914;50.070;8.226;2023-12-04T07:06:25;-0.40;99.90
17591;DHT22;8914;50.070;8.226;2023-12-04T07:08:54;-0.40;99.90
17591;DHT22;8914;50.070;8.226;2023-12-04T07:11:24;-0.50;99.90
17591;DHT22;8914;50.070;8.226;2023-12-04T07:13:54;-0.50;99.90
17591;DHT22;8914;50.070;8.226;2023-12-04T07:16:26;-0.50;99.90
17591;DHT22;8914;50.070;8.226;2023-12-04T07:18:56;-0.50;99.90
17591;DHT22;8914;50.070;8.226;2023-12-04T07:21:26;0.20;99.90
17591;DHT22;8914;50.070;8.226;2023-12-04T07:23:56;-0.30;99.90
17591;DHT22;8914;50.070;8.226;2023-12-04T07:26:26;-0.30;99.90
17591;DHT22;8914;50.070;8.226;2023-12-04T07:28:55;-0.30;99.90
17591;DHT22;8914;50.070;8.226;2023-12-04T07:31:28;-0.30;99.90
17591;DHT22;8914;50.070;8.226;2023-12-04T07:33:57;-0.20;99.90
17591;DHT22;8914;50.070;8.226;2023-12-04T07:36:28;-0.10;99.90
17591;DHT22;8914;50.070;8.226;2023-12-04T07:38:59;-0.10;99.90
17591;DHT22;8914;50.070;8.226;2023-12-04T07:41:28;-0.10;99.90
17591;DHT22;8914;50.070;8.226;2023-12-04T07:43:58;0.00;99.90
17591;DHT22;8914;50.070;8.226;2023-12-04T07:46:30;0.00;99.90
17591;DHT22;8914;50.070;8.226;2023-12-04T07:49:00;0.00;99.90
17591;DHT22;8914;50.070;8.226;2023-12-04T07:51:30;0.00;99.90
17591;DHT22;8914;50.070;8.226;2023-12-04T07:54:00;0.10;99.90
17591;DHT22;8914;50.070;8.226;2023-12-04T07:56:30;0.20;99.90
17591;DHT22;8914;50.070;8.226;2023-12-04T07:59:00;0.20;99.90
17591;DHT22;8914;50.070;8.226;2023-12-04T08:01:32;0.30;99.90
17591;DHT22;8914;50.070;8.226;2023-12-04T08:04:02;0.30;99.90
17591;DHT22;8914;50.070;8.226;2023-12-04T08:06:32;0.40;99.90
17591;DHT22;8914;50.070;8.226;2023-12-04T08:09:02;0.40;99.90
17591;DHT22;8914;50.070;8.226;2023-12-04T08:11:32;0.50;99.90
17591;DHT22;8914;50.070;8.226;2023-12-04T08:14:02;0.50;99.90
17591;DHT22;8914;50.070;8.226;2023-12-04T08:16:34;0.50;99.90
17591;DHT22;8914;50.070;8.226;2023-12-04T08:19:04;0.50;99.90
17591;DHT22;8914;50.070;8.226;2023-12-04T08:21:34;0.60;99.90
17591;DHT22;8914;50.070;8.226;2023-12-04T08:24:03;0.60;99.90
17591;DHT22;8914;50.070;8.226;2023-12-04T08:26:33;2.40;99.90
17591;DHT22;8914;50.070;8.226;2023-12-04T08:29:03;0.70;99.90
17591;DHT22;8914;50.070;8.226;2023-12-04T08:31:35;0.70;99.90
17591;DHT22;8914;50.070;8.226;2023-12-04T08:34:04;0.70;99.90
17591;DHT22;8914;50.070;8.226;2023-12-04T08:36:34;0.80;99.90
17591;DHT22;8914;50.070;8.226;2023-12-04T08:39:12;0.80;99.90
17591;DHT22;8914;50.070;8.226;2023-12-04T08:41:44;0.90;99.90
17591;DHT22;8914;50.070;8.226;2023-12-04T08:44:27;1.00;99.90
17591;DHT22;8914;50.070;8.226;2023-12-04T08:46:59;1.00;99.90
17591;DHT22;8914;50.070;8.226;2023-12-04T08:49:29;1.10;99.90
17591;DHT22;8914;50.070;8.226;2023-12-04T08:52:09;1.10;99.90
17591;DHT22;8914;50.070;8.226;2023-12-04T08:54:39;1.10;99.90
17591;DHT22;8914;50.070;8.226;2023-12-04T08:57:10;1.00;99.90
17591;DHT22;8914;50.070;8.226;2023-12-04T08:59:39;1.10;99.90
17591;DHT22;8914;50.070;8.226;2023-12-04T09:02:11;1.10;99.90
17591;DHT22;8914;50.070;8.226;2023-12-04T09:04:41;1.10;99.90
17591;DHT22;8914;50.070;8.226;2023-12-04T09:07:11;1.20;99.90
17591;DHT22;8914;50.070;8.226;2023-12-04T09:09:44;1.20;99.90
17591;DHT22;8914;50.070;8.226;2023-12-04T09:12:14;1.20;99.90
17591;DHT22;8914;50.070;8.226;2023-12-04T09:14:44;1.20;99.90
17591;DHT22;8914;50.070;8.226;2023-12-04T09:17:16;1.20;99.90
17591;DHT22;8914;50.070;8.226;2023-12-04T09:19:48;1.20;99.90
17591;DHT22;8914;50.070;8.226;2023-12-04T09:22:18;1.20;99.90
17591;DHT22;8914;50.070;8.226;2023-12-04T09:24:55;1.20;99.90
17591;DHT22;8914;50.070;8.226;2023-12-04T09:27:25;1.40;99.90
17591;DHT22;8914;50.070;8.226;2023-12-04T09:29:54;1.10;99.90
17591;DHT22;8914;50.070;8.226;2023-12-04T09:32:27;1.20;99.90
17591;DHT22;8914;50.070;8.226;2023-12-04T09:34:57;1.10;99.90
17591;DHT22;8914;50.070;8.226;2023-12-04T09:37:26;1.20;99.90
17591;DHT22;8914;50.070;8.226;2023-12-04T09:39:56;1.20;99.90
17591;DHT22;8914;50.070;8.226;2023-12-04T09:42:26;1.10;99.90
17591;DHT22;8914;50.070;8.226;2023-12-04T09:44:56;1.10;99.90
17591;DHT22;8914;50.070;8.226;2023-12-04T09:47:31;1.10;99.90
17591;DHT22;8914;50.070;8.226;2023-12-04T09:50:01;1.10;99.90
17591;DHT22;8914;50.070;8.226;2023-12-04T09:52:34;1.10;99.90
17591;DHT22;8914;50.070;8.226;2023-12-04T09:55:04;1.00;99.90
17591;DHT22;8914;50.070;8.226;2023-12-04T09:57:34;1.10;99.90
17591;DHT22;8914;50.070;8.226;2023-12-04T10:00:04;1.10;99.90
17591;DHT22;8914;50.070;8.226;2023-12-04T10:02:37;1.10;99.90
17591;DHT22;8914;50.070;8.226;2023-12-04T10:05:07;1.10;99.90
17591;DHT22;8914;50.070;8.226;2023-12-04T10:07:37;1.20;99.90
17591;DHT22;8914;50.070;8.226;2023-12-04T10:10:07;1.10;99.90
17591;DHT22;8914;50.070;8.226;2023-12-04T10:12:40;1.10;99.90
17591;DHT22;8914;50.070;8.226;2023-12-04T10:15:14;1.10;99.90
17591;DHT22;8914;50.070;8.226;2023-12-04T10:17:46;1.10;99.90
17591;DHT22;8914;50.070;8.226;2023-12-04T10:20:16;1.20;99.90
17591;DHT22;8914;50.070;8.226;2023-12-04T10:22:52;1.20;99.90
17591;DHT22;8914;50.070;8.226;2023-12-04T10:25:22;1.30;99.90
17591;DHT22;8914;50.070;8.226;2023-12-04T10:27:53;1.40;99.90
17591;DHT22;8914;50.070;8.226;2023-12-04T10:30:23;1.40;99.90
17591;DHT22;8914;50.070;8.226;2023-12-04T10:32:59;1.50;99.90
17591;DHT22;8914;50.070;8.226;2023-12-04T10:35:30;1.50;99.90
17591;DHT22;8914;50.070;8.226;2023-12-04T10:38:03;1.60;99.90
17591;DHT22;8914;50.070;8.226;2023-12-04T10:40:34;1.60;99.90
17591;DHT22;8914;50.070;8.226;2023-12-04T10:43:10;1.60;99.90
17591;DHT22;8914;50.070;8.226;2023-12-04T10:45:40;1.70;99.90
17591;DHT22;8914;50.070;8.226;2023-12-04T10:48:14;1.60;99.90
17591;DHT22;8914;50.070;8.226;2023-12-04T10:50:45;1.70;99.90
17591;DHT22;8914;50.070;8.226;2023-12-04T10:53:15;1.60;99.90
17591;DHT22;8914;50.070;8.226;2023-12-04T10:55:45;1.70;99.90
17591;DHT22;8914;50.070;8.226;2023-12-04T10:58:17;0.40;99.90
17591;DHT22;8914;50.070;8.226;2023-12-04T11:00:48;1.70;99.90
17591;DHT22;8914;50.070;8.226;2023-12-04T11:03:21;1.80;99.90
17591;DHT22;8914;50.070;8.226;2023-12-04T11:05:53;1.80;99.90
17591;DHT22;8914;50.070;8.226;2023-12-04T11:08:24;1.80;99.90
17591;DHT22;8914;50.070;8.226;2023-12-04T11:10:56;1.80;99.90
17591;DHT22;8914;50.070;8.226;2023-12-04T11:13:26;1.80;99.90
17591;DHT22;8914;50.070;8.226;2023-12-04T11:15:59;1.80;99.90
17591;DHT22;8914;50.070;8.226;2023-12-04T11:18:34;1.80;99.90
17591;DHT22;8914;50.070;8.226;2023-12-04T11:21:06;1.80;99.90
17591;DHT22;8914;50.070;8.226;2023-12-04T11:23:37;1.80;99.90
17591;DHT22;8914;50.070;8.226;2023-12-04T11:26:07;1.70;99.90
17591;DHT22;8914;50.070;8.226;2023-12-04T11:28:37;1.60;99.90
17591;DHT22;8914;50.070;8.226;2023-12-04T11:31:07;1.50;99.90
17591;DHT22;8914;50.070;8.226;2023-12-04T11:33:39;1.50;99.90
17591;DHT22;8914;50.070;8.226;2023-12-04T11:36:10;1.50;99.90
17591;DHT22;8914;50.070;8.226;2023-12-04T11:38:43;1.50;99.90
17591;DHT22;8914;50.070;8.226;2023-12-04T11:41:14;1.40;99.90
17591;DHT22;8914;50.070;8.226;2023-12-04T11:43:50;1.40;99.90
17591;DHT22;8914;50.070;8.226;2023-12-04T11:46:20;1.40;99.90
17591;DHT22;8914;50.070;8.226;2023-12-04T11:48:54;1.40;99.90
17591;DHT22;8914;50.070;8.226;2023-12-04T11:54:12;1.40;99.90
17591;DHT22;8914;50.070;8.226;2023-12-04T11:56:48;1.40;99.90
17591;DHT22;8914;50.070;8.226;2023-12-04T11:59:26;1.40;99.90
17591;DHT22;8914;50.070;8.226;2023-12-04T12:01:56;1.30;99.90
17591;DHT22;8914;50.070;8.226;2023-12-04T12:04:29;1.30;99.90
17591;DHT22;8914;50.070;8.226;2023-12-04T12:06:59;1.30;99.90
17591;DHT22;8914;50.070;8.226;2023-12-04T12:09:29;1.20;99.90
17591;DHT22;8914;50.070;8.226;2023-12-04T12:12:00;1.20;99.90
17591;DHT22;8914;50.070;8.226;2023-12-04T12:14:30;1.30;99.90
17591;DHT22;8914;50.070;8.226;2023-12-04T12:17:01;1.10;99.90
17591;DHT22;8914;50.070;8.226;2023-12-04T12:19:33;0.90;99.90
17591;DHT22;8914;50.070;8.226;2023-12-04T12:22:04;0.70;99.90
17591;DHT22;8914;50.070;8.226;2023-12-04T12:24:34;0.80;99.90
17591;DHT22;8914;50.070;8.226;2023-12-04T12:27:04;0.80;99.90
17591;DHT22;8914;50.070;8.226;2023-12-04T12:29:34;0.90;99.90
17591;DHT22;8914;50.070;8.226;2023-12-04T12:32:04;0.90;99.90
17591;DHT22;8914;50.070;8.226;2023-12-04T12:34:37;1.00;99.90
17591;DHT22;8914;50.070;8.226;2023-12-04T12:37:07;0.90;99.90
17591;DHT22;8914;50.070;8.226;2023-12-04T12:39:37;0.90;99.90
17591;DHT22;8914;50.070;8.226;2023-12-04T12:42:08;0.90;99.90
17591;DHT22;8914;50.070;8.226;2023-12-04T12:44:38;0.90;99.90
17591;DHT22;8914;50.070;8.226;2023-12-04T12:47:09;0.90;99.90
17591;DHT22;8914;50.070;8.226;2023-12-04T12:49:41;2.60;99.90
17591;DHT22;8914;50.070;8.226;2023-12-04T12:52:12;0.90;99.90
17591;DHT22;8914;50.070;8.226;2023-12-04T12:54:43;1.00;99.90
17591;DHT22;8914;50.070;8.226;2023-12-04T12:57:12;1.00;99.90
17591;DHT22;8914;50.070;8.226;2023-12-04T12:59:42;0.90;99.90
17591;DHT22;8914;50.070;8.226;2023-12-04T13:02:12;0.90;99.90
17591;DHT22;8914;50.070;8.226;2023-12-04T13:04:46;0.90;99.90
17591;DHT22;8914;50.070;8.226;2023-12-04T13:07:16;1.00;99.90
17591;DHT22;8914;50.070;8.226;2023-12-04T13:09:46;1.00;99.90
17591;DHT22;8914;50.070;8.226;2023-12-04T13:12:16;1.00;99.90
17591;DHT22;8914;50.070;8.226;2023-12-04T13:14:46;1.00;99.90
17591;DHT22;8914;50.070;8.226;2023-12-04T13:17:16;1.00;99.90
17591;DHT22;8914;50.070;8.226;2023-12-04T13:19:48;1.00;99.90
17591;DHT22;8914;50.070;8.226;2023-12-04T13:22:19;1.10;99.90
17591;DHT22;8914;50.070;8.226;2023-12-04T13:24:49;1.10;99.90
17591;DHT22;8914;50.070;8.226;2023-12-04T13:27:19;1.10;99.90
17591;DHT22;8914;50.070;8.226;2023-12-04T13:29:49;1.10;99.90
17591;DHT22;8914;50.070;8.226;2023-12-04T13:32:19;1.10;99.90
17591;DHT22;8914;50.070;8.226;2023-12-04T13:34:51;1.10;99.90
17591;DHT22;8914;50.070;8.226;2023-12-04T13:37:21;1.00;99.90
17591;DHT22;8914;50.070;8.226;2023-12-04T13:39:53;1.00;99.90
17591;DHT22;8914;50.070;8.226;2023-12-04T13:42:25;1.00;99.90
17591;DHT22;8914;50.070;8.226;2023-12-04T13:45:07;1.00;99.90
17591;DHT22;8914;50.070;8.226;2023-12-04T13:47:39;1.00;99.90
17591;DHT22;8914;50.070;8.226;2023-12-04T13:50:12;1.00;99.90
17591;DHT22;8914;50.070;8.226;2023-12-04T13:52:41;1.10;99.90
17591;DHT22;8914;50.070;8.226;2023-12-04T13:55:11;1.10;99.90
17591;DHT22;8914;50.070;8.226;2023-12-04T13:57:47;0.70;99.90
17591;DHT22;8914;50.070;8.226;2023-12-04T14:00:36;1.20;99.90
17591;DHT22;8914;50.070;8.226;2023-12-04T14:03:06;1.20;99.90
17591;DHT22;8914;50.070;8.226;2023-12-04T14:05:40;1.20;99.90
17591;DHT22;8914;50.070;8.226;2023-12-04T14:08:10;1.20;99.90
17591;DHT22;8914;50.070;8.226;2023-12-04T14:10:40;1.20;99.90
17591;DHT22;8914;50.070;8.226;2023-12-04T14:13:10;1.20;99.90
17591;DHT22;8914;50.070;8.226;2023-12-04T14:15:39;1.20;99.90
17591;DHT22;8914;50.070;8.226;2023-12-04T14:18:09;1.10;99.90
17591;DHT22;8914;50.070;8.226;2023-12-04T14:20:42;1.20;99.90
17591;DHT22;8914;50.070;8.226;2023-12-04T14:23:12;1.00;99.90
17591;DHT22;8914;50.070;8.226;2023-12-04T14:25:41;1.10;99.90
17591;DHT22;8914;50.070;8.226;2023-12-04T14:28:11;1.10;99.90
17591;DHT22;8914;50.070;8.226;2023-12-04T14:30:44;1.10;99.90
17591;DHT22;8914;50.070;8.226;2023-12-04T14:33:14;1.10;99.90
17591;DHT22;8914;50.070;8.226;2023-12-04T14:35:46;1.10;99.90
17591;DHT22;8914;50.070;8.226;2023-12-04T14:38:16;1.10;99.90
17591;DHT22;8914;50.070;8.226;2023-12-04T14:40:45;1.10;99.90
17591;DHT22;8914;50.070;8.226;2023-12-04T14:43:15;1.10;99.90
17591;DHT22;8914;50.070;8.226;2023-12-04T14:45:45;1.10;99.90
17591;DHT22;8914;50.070;8.226;2023-12-04T14:48:14;1.10;99.90
17591;DHT22;8914;50.070;8.226;2023-12-04T14:50:47;1.10;99.90
17591;DHT22;8914;50.070;8.226;2023-12-04T14:53:16;1.10;99.90
17591;DHT22;8914;50.070;8.226;2023-12-04T14:55:57;1.20;99.90
17591;DHT22;8914;50.070;8.226;2023-12-04T14:58:39;1.20;99.90
17591;DHT22;8914;50.070;8.226;2023-12-04T15:01:22;1.20;99.90
17591;DHT22;8914;50.070;8.226;2023-12-04T15:04:26;1.10;99.90
17591;DHT22;8914;50.070;8.226;2023-12-04T15:07:14;1.00;99.90
17591;DHT22;8914;50.070;8.226;2023-12-04T15:10:13;1.00;99.90
17591;DHT22;8914;50.070;8.226;2023-12-04T15:12:56;1.00;99.90
17591;DHT22;8914;50.070;8.226;2023-12-04T15:15:38;1.00;99.90
17591;DHT22;8914;50.070;8.226;2023-12-04T15:18:29;1.00;99.90
17591;DHT22;8914;50.070;8.226;2023-12-04T15:21:04;1.10;99.90
17591;DHT22;8914;50.070;8.226;2023-12-04T15:23:37;1.10;99.90
17591;DHT22;8914;50.070;8.226;2023-12-04T15:26:04;1.20;99.90
17591;DHT22;8914;50.070;8.226;2023-12-04T15:28:34;1.20;99.90
17591;DHT22;8914;50.070;8.226;2023-12-04T15:31:01;1.10;99.90
17591;DHT22;8914;50.070;8.226;2023-12-04T15:33:31;1.20;99.90
17591;DHT22;8914;50.070;8.226;2023-12-04T15:35:58;1.10;99.90
17591;DHT22;8914;50.070;8.226;2023-12-04T15:38:28;1.20;99.90
17591;DHT22;8914;50.070;8.226;2023-12-04T15:40:58;1.20;99.90
17591;DHT22;8914;50.070;8.226;2023-12-04T15:43:28;1.20;99.90
17591;DHT22;8914;50.070;8.226;2023-12-04T15:45:55;1.20;99.90
17591;DHT22;8914;50.070;8.226;2023-12-04T15:48:25;1.20;99.90
17591;DHT22;8914;50.070;8.226;2023-12-04T15:50:53;2.40;99.90
17591;DHT22;8914;50.070;8.226;2023-12-04T15:53:22;1.20;99.90
17591;DHT22;8914;50.070;8.226;2023-12-04T15:55:52;1.20;99.90
17591;DHT22;8914;50.070;8.226;2023-12-04T15:58:25;1.20;99.90
17591;DHT22;8914;50.070;8.226;2023-12-04T16:00:52;1.20;99.90
17591;DHT22;8914;50.070;8.226;2023-12-04T16:03:21;1.30;99.90
17591;DHT22;8914;50.070;8.226;2023-12-04T16:05:51;1.30;99.90
17591;DHT22;8914;50.070;8.226;2023-12-04T16:08:21;1.30;99.90
17591;DHT22;8914;50.070;8.226;2023-12-04T16:10:51;1.30;99.90
17591;DHT22;8914;50.070;8.226;2023-12-04T16:13:21;1.30;99.90
17591;DHT22;8914;50.070;8.226;2023-12-04T16:15:53;1.40;99.90
17591;DHT22;8914;50.070;8.226;2023-12-04T16:18:23;1.30;99.90
17591;DHT22;8914;50.070;8.226;2023-12-04T16:20:53;1.20;99.90
17591;DHT22;8914;50.070;8.226;2023-12-04T16:23:22;1.20;99.90
17591;DHT22;8914;50.070;8.226;2023-12-04T16:25:52;1.20;99.90
17591;DHT22;8914;50.070;8.226;2023-12-04T16:28:22;1.30;99.90
17591;DHT22;8914;50.070;8.226;2023-12-04T16:30:54;1.30;99.90
17591;DHT22;8914;50.070;8.226;2023-12-04T16:33:25;1.20;99.90
17591;DHT22;8914;50.070;8.226;2023-12-04T16:35:55;1.30;99.90
17591;DHT22;8914;50.070;8.226;2023-12-04T16:38:25;1.20;99.90
17591;DHT22;8914;50.070;8.226;2023-12-04T16:40:55;1.20;99.90
17591;DHT22;8914;50.070;8.226;2023-12-04T16:43:28;1.10;99.90
17591;DHT22;8914;50.070;8.226;2023-12-04T16:46:01;1.10;99.90
17591;DHT22;8914;50.070;8.226;2023-12-04T16:48:31;1.00;99.90
17591;DHT22;8914;50.070;8.226;2023-12-04T16:51:01;1.00;99.90
17591;DHT22;8914;50.070;8.226;2023-12-04T16:53:31;1.00;99.90
17591;DHT22;8914;50.070;8.226;2023-12-04T16:56:01;1.00;99.90
17591;DHT22;8914;50.070;8.226;2023-12-04T16:58:31;1.10;99.90
17591;DHT22;8914;50.070;8.226;2023-12-04T17:01:03;1.10;99.90
17591;DHT22;8914;50.070;8.226;2023-12-04T17:03:33;1.10;99.90
17591;DHT22;8914;50.070;8.226;2023-12-04T17:06:03;1.10;99.90
17591;DHT22;8914;50.070;8.226;2023-12-04T17:08:33;1.10;99.90
17591;DHT22;8914;50.070;8.226;2023-12-04T17:11:03;1.10;99.90
17591;DHT22;8914;50.070;8.226;2023-12-04T17:13:33;1.10;99.90
17591;DHT22;8914;50.070;8.226;2023-12-04T17:16:06;1.10;99.90
17591;DHT22;8914;50.070;8.226;2023-12-04T17:18:36;1.20;99.90
17591;DHT22;8914;50.070;8.226;2023-12-04T17:21:07;1.20;99.90
17591;DHT22;8914;50.070;8.226;2023-12-04T17:23:37;1.20;99.90
17591;DHT22;8914;50.070;8.226;2023-12-04T17:26:07;1.30;99.90
17591;DHT22;8914;50.070;8.226;2023-12-04T17:28:36;1.30;99.90
17591;DHT22;8914;50.070;8.226;2023-12-04T17:31:09;2.10;99.90
17591;DHT22;8914;50.070;8.226;2023-12-04T17:33:38;1.50;99.90
17591;DHT22;8914;50.070;8.226;2023-12-04T17:36:09;1.50;99.90
17591;DHT22;8914;50.070;8.226;2023-12-04T17:38:38;1.60;99.90
17591;DHT22;8914;50.070;8.226;2023-12-04T17:41:10;1.60;99.90
17591;DHT22;8914;50.070;8.226;2023-12-04T17:43:40;1.70;99.90
17591;DHT22;8914;50.070;8.226;2023-12-04T17:46:12;1.60;99.90
17591;DHT22;8914;50.070;8.226;2023-12-04T17:48:42;1.60;99.90
17591;DHT22;8914;50.070;8.226;2023-12-04T17:51:14;1.70;99.90
17591;DHT22;8914;50.070;8.226;2023-12-04T17:53:44;1.70;99.90
17591;DHT22;8914;50.070;8.226;2023-12-04T17:56:15;1.80;99.90
17591;DHT22;8914;50.070;8.226;2023-12-04T17:58:44;1.80;99.90
17591;DHT22;8914;50.070;8.226;2023-12-04T18:01:17;1.80;99.90
17591;DHT22;8914;50.070;8.226;2023-12-04T18:03:46;1.90;99.90
17591;DHT22;8914;50.070;8.226;2023-12-04T18:06:24;1.90;99.90
17591;DHT22;8914;50.070;8.226;2023-12-04T18:08:54;1.90;99.90
17591;DHT22;8914;50.070;8.226;2023-12-04T18:11:24;1.80;99.90
17591;DHT22;8914;50.070;8.226;2023-12-04T18:13:53;1.80;99.90
17591;DHT22;8914;50.070;8.226;2023-12-04T18:16:26;1.80;99.90
17591;DHT22;8914;50.070;8.226;2023-12-04T18:18:57;1.80;99.90
17591;DHT22;8914;50.070;8.226;2023-12-04T18:21:27;1.80;99.90
17591;DHT22;8914;50.070;8.226;2023-12-04T18:23:57;1.80;99.90
17591;DHT22;8914;50.070;8.226;2023-12-04T18:26:27;1.80;99.90
17591;DHT22;8914;50.070;8.226;2023-12-04T18:28:58;1.80;99.90
17591;DHT22;8914;50.070;8.226;2023-12-04T18:31:31;1.80;99.90
17591;DHT22;8914;50.070;8.226;2023-12-04T18:34:01;1.70;99.90
17591;DHT22;8914;50.070;8.226;2023-12-04T18:36:33;1.80;99.90
17591;DHT22;8914;50.070;8.226;2023-12-04T18:39:03;1.80;99.90
17591;DHT22;8914;50.070;8.226;2023-12-04T18:41:33;1.70;99.90
17591;DHT22;8914;50.070;8.226;2023-12-04T18:44:03;1.70;99.90